Time;durP1;ratioP1;P1;durP2;ratioP2;P2;SDS_P1;SDS_P2;PMS_P1;PMS_P2;Temp;Humidity;BMP_temperature;BMP_pressure;BME280_temperature;BME280_humidity;BME280_pressure;Samples;Min_cycle;Max_cycle;Signal;HPM_P1;HPM_P2
2021/07/12 00:01:25;;;;;;;;;7.00;7.00;;;;;28.60;63.85;98850.06;4933376;29;8850;-75
2021/07/12 00:03:55;;;;;;;;;6.00;6.00;;;;;28.57;64.78;98865.19;4933598;29;8980;-74
2021/07/12 00:06:23;;;;;;;;;5.00;5.00;;;;;28.51;65.39;98867.50;4933765;29;8914;-75
2021/07/12 00:08:52;;;;;;;;;4.25;4.25;;;;;28.52;64.24;98876.41;4924301;29;9025;-73
2021/07/12 00:11:21;;;;;;;;;6.00;6.00;;;;;28.51;65.06;98872.94;4934514;29;8854;-73
2021/07/12 00:13:52;;;;;;;;;7.00;7.00;;;;;28.53;65.30;98878.75;4932843;29;8890;-74
2021/07/12 00:16:21;;;;;;;;;5.00;4.50;;;;;28.49;64.20;98875.25;4932912;29;8866;-74
2021/07/12 00:18:50;;;;;;;;;7.25;7.25;;;;;28.60;64.90;98886.13;4928061;29;9763;-75
2021/07/12 00:21:18;;;;;;;;;6.50;6.50;;;;;28.60;64.53;98880.72;4934256;29;8862;-74
2021/07/12 00:23:49;;;;;;;;;5.00;5.00;;;;;28.62;64.73;98891.16;4914510;29;8865;-74
2021/07/12 00:26:18;;;;;;;;;5.75;5.75;;;;;28.66;63.98;98894.66;4924861;29;8953;-75
2021/07/12 00:28:46;;;;;;;;;7.00;7.00;;;;;28.65;64.29;98893.88;4924984;29;9600;-74
2021/07/12 00:31:15;;;;;;;;;5.75;5.75;;;;;28.63;64.30;98898.91;4934304;29;8858;-75
2021/07/12 00:33:43;;;;;;;;;5.75;5.75;;;;;28.64;64.76;98900.47;4933745;29;8854;-73
2021/07/12 00:36:12;;;;;;;;;5.00;5.00;;;;;28.63;63.54;98900.84;4933792;29;8875;-72
2021/07/12 00:38:40;;;;;;;;;5.25;5.25;;;;;28.61;63.51;98903.16;4932540;29;8859;-73
2021/07/12 00:41:09;;;;;;;;;4.00;4.00;;;;;28.62;62.92;98893.88;4933956;29;8847;-74
2021/07/12 00:43:39;;;;;;;;;2.00;2.00;;;;;28.69;63.94;98910.19;4932782;29;9011;-73
2021/07/12 00:46:08;;;;;;;;;5.50;5.50;;;;;28.69;63.69;98912.88;4933924;29;8855;-74
2021/07/12 00:48:37;;;;;;;;;6.50;6.50;;;;;28.74;64.62;98909.81;4948653;29;8985;-76
2021/07/12 00:51:06;;;;;;;;;5.00;5.00;;;;;28.77;63.79;98917.19;4931794;29;8862;-72
2021/07/12 00:53:34;;;;;;;;;5.25;5.25;;;;;28.78;63.16;98911.38;4931826;29;8870;-73
2021/07/12 00:56:05;;;;;;;;;5.00;5.00;;;;;28.77;63.38;98917.19;4932809;29;8855;-71
2021/07/12 00:58:34;;;;;;;;;5.50;5.50;;;;;28.71;63.88;98913.28;4923253;29;8855;-71
2021/07/12 01:01:05;;;;;;;;;7.25;7.25;;;;;28.71;63.97;98914.06;4934340;29;8863;-72
2021/07/12 01:03:35;;;;;;;;;6.75;6.75;;;;;28.69;63.55;98910.94;4936627;29;8866;-74
2021/07/12 01:06:06;;;;;;;;;6.00;6.00;;;;;28.67;62.86;98924.13;4935886;29;8929;-73
2021/07/12 01:08:34;;;;;;;;;4.75;4.75;;;;;28.66;62.56;98914.44;4935224;29;8951;-73
2021/07/12 01:11:42;;;;;;;;;5.50;5.50;;;;;28.73;63.18;98924.53;4936021;29;8854;-72
2021/07/12 01:14:47;;;;;;;;;5.75;5.75;;;;;28.82;65.03;98927.66;4934897;29;8854;-71
2021/07/12 01:17:41;;;;;;;;;3.75;3.75;;;;;28.91;63.09;98925.41;4935404;29;8977;-71
2021/07/12 01:20:43;;;;;;;;;5.75;5.75;;;;;28.98;63.19;98927.34;4936065;29;8874;-72
2021/07/12 01:23:23;;;;;;;;;3.25;3.25;;;;;29.03;62.72;98924.25;4934600;29;8875;-74
2021/07/12 01:26:21;;;;;;;;;6.50;6.50;;;;;29.04;62.91;98929.31;4934542;29;8878;-74
2021/07/12 01:29:14;;;;;;;;;5.50;5.50;;;;;29.05;64.04;98933.56;4935400;29;8854;-72
2021/07/12 01:32:21;;;;;;;;;6.75;6.75;;;;;29.09;63.59;98947.16;4935378;29;8958;-72
2021/07/12 01:35:12;;;;;;;;;9.00;9.00;;;;;29.12;63.59;98944.44;4934364;29;8878;-73
2021/07/12 01:38:08;;;;;;;;;6.75;6.75;;;;;29.17;63.38;98946.78;4947360;29;8941;-73
2021/07/12 01:41:05;;;;;;;;;8.50;8.50;;;;;29.20;64.64;98951.44;4934915;29;8866;-73
2021/07/12 01:43:52;;;;;;;;;6.25;6.25;;;;;29.30;64.96;98944.47;4932096;29;8885;-73
2021/07/12 01:46:33;;;;;;;;;6.50;6.50;;;;;29.36;63.38;98950.31;4932018;29;8946;-74
2021/07/12 01:49:19;;;;;;;;;6.00;6.00;;;;;29.44;62.74;98954.63;4932913;29;8900;-73
2021/07/12 01:52:05;;;;;;;;;6.25;6.25;;;;;29.47;62.71;98960.06;4933412;29;9647;-73
2021/07/12 01:55:02;;;;;;;;;7.25;7.25;;;;;29.52;61.97;98951.50;4934487;29;8874;-73
2021/07/12 01:57:36;;;;;;;;;5.50;5.25;;;;;29.47;62.62;98946.47;4934667;29;8957;-73
2021/07/12 02:00:13;;;;;;;;;5.75;5.75;;;;;29.49;62.70;98944.13;4935718;29;8867;-71
2021/07/12 02:02:45;;;;;;;;;5.25;5.25;;;;;29.56;62.16;98951.50;4950001;29;8871;-73
2021/07/12 02:05:19;;;;;;;;;7.50;7.50;;;;;29.60;62.40;98949.56;4935400;29;8921;-73
2021/07/12 02:07:50;;;;;;;;;5.50;5.50;;;;;29.64;63.47;98949.56;4935333;29;8949;-73
2021/07/12 02:10:20;;;;;;;;;7.00;6.00;;;;;29.67;64.75;98952.28;4935073;29;8886;-74
2021/07/12 02:12:52;;;;;;;;;6.75;6.75;;;;;29.77;63.43;98951.50;4934492;29;8870;-73
2021/07/12 02:15:23;;;;;;;;;6.25;6.25;;;;;29.83;63.71;98951.88;4935254;29;9612;-73
2021/07/12 02:17:53;;;;;;;;;5.75;5.75;;;;;29.92;62.09;98938.63;4935322;29;8846;-71
2021/07/12 02:20:25;;;;;;;;;4.75;4.75;;;;;30.00;62.75;98945.66;4935590;29;8913;-72
2021/07/12 02:22:56;;;;;;;;;7.75;7.75;;;;;30.06;61.92;98954.97;4935912;29;8877;-72
2021/07/12 02:25:27;;;;;;;;;5.25;5.25;;;;;30.09;61.94;98953.41;4935538;29;8858;-72
2021/07/12 02:27:56;;;;;;;;;6.25;6.25;;;;;30.11;61.77;98946.41;4934193;29;8937;-72
2021/07/12 02:30:27;;;;;;;;;5.25;5.25;;;;;30.11;61.60;98945.63;4933109;29;8858;-73
2021/07/12 02:32:57;;;;;;;;;5.00;5.00;;;;;30.16;61.42;98950.69;4935144;29;8893;-72
2021/07/12 02:35:26;;;;;;;;;6.75;6.75;;;;;30.13;61.01;98949.50;4934876;29;8956;-72
2021/07/12 02:37:55;;;;;;;;;7.50;6.00;;;;;30.16;60.58;98956.13;4933582;29;8960;-73
2021/07/12 02:40:25;;;;;;;;;7.75;6.75;;;;;30.19;61.16;98949.88;4929960;29;9612;-74
2021/07/12 02:42:57;;;;;;;;;5.50;4.75;;;;;30.25;61.35;98948.31;4933781;29;8858;-72
2021/07/12 02:45:27;;;;;;;;;6.00;6.00;;;;;30.32;61.24;98953.75;4932420;29;8921;-72
2021/07/12 02:47:56;;;;;;;;;6.25;6.25;;;;;30.37;61.41;98945.16;4935015;29;8863;-72
2021/07/12 02:50:27;;;;;;;;;4.75;4.75;;;;;30.42;62.46;98941.28;4931926;29;8863;-72
2021/07/12 02:53:12;;;;;;;;;7.00;7.00;;;;;30.50;61.91;98937.34;4933281;29;8866;-73
2021/07/12 02:55:42;;;;;;;;;5.25;5.25;;;;;30.57;60.95;98944.72;4934018;29;8854;-72
2021/07/12 02:58:10;;;;;;;;;4.20;4.20;;;;;30.63;60.59;98938.50;4934213;29;8966;-72
2021/07/12 03:00:39;;;;;;;;;7.00;6.25;;;;;30.67;60.54;98930.31;4933894;29;8842;-73
2021/07/12 03:03:08;;;;;;;;;4.40;4.40;;;;;30.78;60.79;98939.19;4934019;29;8866;-74
2021/07/12 03:05:37;;;;;;;;;5.20;5.20;;;;;30.86;60.56;98945.38;4933781;29;9035;-72
2021/07/12 03:08:14;;;;;;;;;7.25;7.25;;;;;30.92;60.51;98944.56;4932964;29;8890;-73
2021/07/12 03:10:48;;;;;;;;;6.25;6.25;;;;;30.95;60.34;98941.06;4932346;29;8917;-74
2021/07/12 03:13:27;;;;;;;;;5.50;5.50;;;;;30.90;59.82;98948.88;4932769;29;8913;-75
2021/07/12 03:15:58;;;;;;;;;5.75;5.50;;;;;30.82;60.21;98939.94;4932144;29;8888;-73
2021/07/12 03:18:41;;;;;;;;;4.40;4.40;;;;;30.83;60.23;98936.06;4933240;29;8894;-74
2021/07/12 03:21:12;;;;;;;;;4.00;4.00;;;;;30.86;60.13;98931.75;4930777;29;8921;-75
2021/07/12 03:23:42;;;;;;;;;3.00;3.00;;;;;30.92;59.86;98930.94;4932624;29;8977;-71
2021/07/12 03:26:13;;;;;;;;;6.25;5.25;;;;;31.02;59.84;98932.06;4931898;29;8988;-74
2021/07/12 03:28:43;;;;;;;;;6.25;6.25;;;;;31.09;60.02;98929.28;4933454;29;8981;-76
2021/07/12 03:31:13;;;;;;;;;5.25;5.25;;;;;31.09;60.25;98919.16;4933627;29;8862;-72
2021/07/12 03:33:43;;;;;;;;;7.00;7.00;;;;;31.17;59.50;98924.59;4934169;29;8879;-75
2021/07/12 03:36:12;;;;;;;;;6.25;6.25;;;;;31.21;59.91;98917.91;4933393;29;8854;-74
2021/07/12 03:38:43;;;;;;;;;4.60;4.60;;;;;31.26;59.03;98916.72;4933705;28;8965;-74
2021/07/12 03:41:12;;;;;;;;;5.25;5.25;;;;;31.32;59.90;98907.72;4932563;29;8859;-75
2021/07/12 03:43:41;;;;;;;;;10.00;10.00;;;;;31.36;59.37;98913.91;4933695;29;8842;-72
2021/07/12 03:46:10;;;;;;;;;5.20;5.20;;;;;31.38;59.42;98905.34;4933951;29;8915;-73
2021/07/12 03:48:44;;;;;;;;;5.80;5.80;;;;;31.36;59.41;98891.31;4934083;29;8870;-72
2021/07/12 03:51:28;;;;;;;;;5.20;5.20;;;;;31.40;59.40;98883.91;4933465;29;8901;-73
2021/07/12 03:53:57;;;;;;;;;5.00;5.00;;;;;31.42;59.19;98887.75;4933273;29;8909;-73
2021/07/12 03:56:25;;;;;;;;;8.00;8.00;;;;;31.44;59.02;98895.53;4933973;29;8967;-73
2021/07/12 03:58:54;;;;;;;;;9.00;8.80;;;;;31.43;58.69;98888.53;4931331;29;8940;-76
2021/07/12 04:01:22;;;;;;;;;6.80;6.80;;;;;31.45;59.21;98884.22;4933445;29;8977;-75
2021/07/12 04:03:54;;;;;;;;;8.50;8.50;;;;;31.51;59.44;98872.91;4933441;29;8913;-73
2021/07/12 04:06:23;;;;;;;;;5.20;5.20;;;;;31.59;58.66;98883.34;4932579;29;8879;-75
2021/07/12 04:08:52;;;;;;;;;4.20;4.20;;;;;31.66;58.46;98883.25;4931982;29;8985;-72
2021/07/12 04:11:22;;;;;;;;;7.00;7.00;;;;;31.68;58.13;98872.75;4932430;29;8951;-72
2021/07/12 04:13:51;;;;;;;;;6.60;6.60;;;;;31.76;57.97;98870.72;4932280;29;8887;-73
2021/07/12 04:16:19;;;;;;;;;8.75;7.50;;;;;31.86;58.22;98875.31;4932955;29;8891;-73
2021/07/12 04:18:48;;;;;;;;;4.40;4.40;;;;;31.92;57.72;98867.44;4932585;29;8858;-73
2021/07/12 04:21:17;;;;;;;;;4.00;4.00;;;;;32.06;58.19;98876.25;4931279;29;8851;-73
2021/07/12 04:23:45;;;;;;;;;5.40;5.40;;;;;32.10;58.14;98857.09;4933017;29;8874;-73
2021/07/12 04:26:14;;;;;;;;;6.00;5.60;;;;;32.16;57.81;98860.94;4934342;29;9682;-73
2021/07/12 04:28:42;;;;;;;;;3.80;3.80;;;;;32.17;57.31;98865.22;4930817;29;9640;-75
2021/07/12 04:31:14;;;;;;;;;6.20;6.20;;;;;32.15;57.99;98858.63;4931813;29;8884;-73
2021/07/12 04:33:43;;;;;;;;;5.20;5.20;;;;;32.14;57.65;98841.47;4930188;29;8886;-71
2021/07/12 04:36:13;;;;;;;;;4.40;4.40;;;;;32.16;57.79;98844.56;4929647;28;9655;-81
2021/07/12 04:38:41;;;;;;;;;4.00;4.00;;;;;32.22;56.57;98842.16;4913207;29;8890;-80
2021/07/12 04:41:15;;;;;;;;;4.00;4.00;;;;;32.31;55.93;98839.72;4925299;29;8870;-78
2021/07/12 04:43:47;;;;;;;;;4.40;4.40;;;;;32.43;55.54;98826.28;4930100;29;8974;-78
2021/07/12 04:46:16;;;;;;;;;1.80;1.80;;;;;32.66;55.58;98830.25;4909906;29;8879;-78
2021/07/12 04:48:54;;;;;;;;;5.00;5.00;;;;;32.74;55.95;98813.34;4911441;29;8863;-80
2021/07/12 04:51:23;;;;;;;;;3.20;3.20;;;;;32.93;56.42;98822.06;4920449;29;8870;-75
2021/07/12 04:53:54;;;;;;;;;5.00;5.00;;;;;32.97;56.20;98817.31;4934961;29;8874;-74
2021/07/12 04:56:23;;;;;;;;;5.00;5.00;;;;;32.91;55.84;98816.22;4934192;29;8957;-73
2021/07/12 04:58:52;;;;;;;;;6.80;6.40;;;;;32.95;55.65;98825.16;4933345;29;9690;-74
2021/07/12 05:01:21;;;;;;;;;5.60;5.60;;;;;32.96;55.55;98823.97;4928504;29;9029;-76
2021/07/12 05:03:58;;;;;;;;;4.60;4.60;;;;;32.93;54.50;98811.91;4933673;29;8855;-74
2021/07/12 05:06:26;;;;;;;;;3.80;3.80;;;;;32.99;53.62;98807.50;4931343;29;9687;-75
2021/07/12 05:08:58;;;;;;;;;2.80;2.80;;;;;33.12;53.53;98804.19;4932921;29;8858;-75
2021/07/12 05:11:29;;;;;;;;;3.40;3.40;;;;;33.17;53.77;98788.06;4933519;29;8866;-76
2021/07/12 05:14:00;;;;;;;;;4.60;4.60;;;;;33.34;53.47;98788.97;4934098;29;8904;-76
2021/07/12 05:16:28;;;;;;;;;4.60;4.60;;;;;33.47;53.73;98778.97;4933738;29;8874;-76
2021/07/12 05:18:57;;;;;;;;;3.40;3.40;;;;;33.59;52.73;98788.50;4932530;29;8945;-77
2021/07/12 05:21:29;;;;;;;;;2.80;2.80;;;;;33.77;52.32;98799.88;4933017;29;8949;-75
2021/07/12 05:23:57;;;;;;;;;4.20;4.20;;;;;33.83;52.37;98803.69;4931491;29;8870;-76
2021/07/12 05:26:26;;;;;;;;;6.60;6.60;;;;;33.85;52.81;98797.78;4932712;29;9620;-75
2021/07/12 05:28:57;;;;;;;;;4.80;4.80;;;;;33.78;52.03;98803.41;4931575;29;8871;-77
2021/07/12 05:31:27;;;;;;;;;3.00;3.00;;;;;33.71;52.77;98805.06;4929797;29;9626;-76
2021/07/12 05:33:56;;;;;;;;;6.00;6.00;;;;;33.55;52.03;98798.75;4932029;29;8885;-75
2021/07/12 05:36:25;;;;;;;;;2.80;2.80;;;;;33.37;52.98;98790.88;4934882;29;9619;-74
2021/07/12 05:38:53;;;;;;;;;6.80;6.80;;;;;33.25;52.88;98803.16;4935801;29;8909;-74
2021/07/12 05:41:21;;;;;;;;;3.60;3.60;;;;;33.08;53.15;98817.91;4934575;29;8984;-74
2021/07/12 05:43:51;;;;;;;;;2.20;2.20;;;;;32.91;53.67;98822.47;4933842;29;8863;-75
2021/07/12 05:46:19;;;;;;;;;2.40;2.40;;;;;32.67;53.14;98824.38;4935783;29;8870;-74
2021/07/12 05:48:50;;;;;;;;;1.00;1.00;;;;;32.44;54.30;98816.16;4935231;29;8935;-74
2021/07/12 05:51:19;;;;;;;;;1.00;1.00;;;;;32.15;55.28;98806.75;4933295;29;8921;-74
2021/07/12 05:53:48;;;;;;;;;0.00;0.00;;;;;31.90;56.00;98821.47;4934526;29;8843;-75
2021/07/12 05:56:16;;;;;;;;;0.80;0.80;;;;;31.56;56.44;98810.53;4934846;29;8874;-76
2021/07/12 05:58:47;;;;;;;;;0.80;0.80;;;;;31.22;56.67;98779.72;4933599;29;8826;-76
2021/07/12 06:01:16;;;;;;;;;2.00;2.00;;;;;30.98;55.34;98776.03;4934194;29;8851;-75
2021/07/12 06:03:45;;;;;;;;;0.20;0.20;;;;;30.78;55.15;98775.78;4933921;29;8851;-74
2021/07/12 06:06:14;;;;;;;;;1.60;1.60;;;;;30.60;55.94;98764.25;4934783;29;8898;-75
2021/07/12 06:08:45;;;;;;;;;1.20;1.20;;;;;30.39;55.35;98746.88;4934138;29;8965;-74
2021/07/12 06:11:16;;;;;;;;;0.00;0.00;;;;;30.35;56.94;98745.34;4932109;29;8858;-75
2021/07/12 06:13:44;;;;;;;;;0.00;0.00;;;;;30.27;57.43;98757.44;4934110;29;8855;-73
2021/07/12 06:16:13;;;;;;;;;0.00;0.00;;;;;30.16;57.61;98750.13;4933162;29;8909;-73
2021/07/12 06:18:42;;;;;;;;;1.00;1.00;;;;;30.11;58.32;98736.16;4933259;29;8897;-73
2021/07/12 06:21:11;;;;;;;;;0.00;0.00;;;;;30.08;58.69;98726.84;4934137;29;8847;-74
2021/07/12 06:23:39;;;;;;;;;0.00;0.00;;;;;30.05;59.61;98735.03;4932730;29;8866;-73
2021/07/12 06:26:08;;;;;;;;;0.00;0.00;;;;;30.09;59.57;98738.50;4935428;29;8930;-74
2021/07/12 06:28:37;;;;;;;;;0.00;0.00;;;;;30.18;58.72;98749.72;4936163;29;8851;-74
2021/07/12 06:31:05;;;;;;;;;1.00;0.00;;;;;30.30;58.95;98743.03;4934934;29;8961;-74
2021/07/12 06:33:34;;;;;;;;;0.00;0.00;;;;;30.41;57.98;98735.59;4938643;29;8867;-73
2021/07/12 06:36:03;;;;;;;;;0.00;0.00;;;;;30.59;58.52;98733.53;4933341;29;8858;-73
2021/07/12 06:38:32;;;;;;;;;0.00;0.00;;;;;30.76;57.98;98727.19;4934735;29;8957;-73
2021/07/12 06:41:01;;;;;;;;;0.00;0.00;;;;;30.94;57.66;98720.81;4934308;29;8842;-73
2021/07/12 06:43:29;;;;;;;;;0.80;0.80;;;;;31.07;57.36;98713.66;4934001;29;8881;-73
2021/07/12 06:45:59;;;;;;;;;0.00;0.00;;;;;31.19;57.28;98705.00;4934325;29;8889;-73
2021/07/12 06:48:28;;;;;;;;;0.80;0.80;;;;;31.29;57.41;98697.88;4935600;29;8862;-74
2021/07/12 06:50:58;;;;;;;;;0.00;0.00;;;;;31.47;58.48;98690.25;4934819;29;8956;-73
2021/07/12 06:53:34;;;;;;;;;1.80;1.80;;;;;31.67;57.10;98696.63;4933805;29;8941;-73
2021/07/12 06:56:04;;;;;;;;;0.80;0.80;;;;;31.88;57.35;98700.31;4934854;29;9337;-73
2021/07/12 06:58:33;;;;;;;;;1.00;1.00;;;;;32.07;57.20;98705.09;4934773;29;8982;-73
2021/07/12 07:01:27;;;;;;;;;2.00;2.00;;;;;32.30;56.31;98715.34;4933236;29;8870;-74
2021/07/12 07:03:57;;;;;;;;;1.00;1.00;;;;;32.42;55.42;98709.31;4931705;29;8844;-73
2021/07/12 07:06:25;;;;;;;;;2.00;2.00;;;;;32.64;54.64;98715.16;4932209;29;9013;-72
2021/07/12 07:08:54;;;;;;;;;1.20;1.20;;;;;32.81;54.92;98716.84;4931057;29;8890;-72
2021/07/12 07:11:45;;;;;;;;;2.20;1.00;;;;;32.97;54.43;98713.47;4932826;28;8861;-72
2021/07/12 07:14:14;;;;;;;;;2.00;2.00;;;;;33.11;54.93;98694.06;4934088;28;8997;-72
2021/07/12 07:16:43;;;;;;;;;2.00;2.00;;;;;33.27;54.68;98690.66;4934649;28;8953;-72
2021/07/12 07:19:13;;;;;;;;;1.80;1.80;;;;;33.38;53.64;98683.03;4932205;28;8854;-72
2021/07/12 07:21:42;;;;;;;;;1.60;1.60;;;;;33.45;54.45;98668.47;4934147;28;8854;-73
2021/07/12 07:24:10;;;;;;;;;1.40;1.40;;;;;33.53;53.62;98658.91;4934117;28;8914;-73
2021/07/12 07:26:38;;;;;;;;;0.80;0.80;;;;;33.56;53.38;98652.59;4934082;28;8972;-73
2021/07/12 07:29:07;;;;;;;;;1.00;1.00;;;;;33.64;52.90;98641.09;4932899;28;8835;-72
2021/07/12 07:31:36;;;;;;;;;1.20;1.20;;;;;33.67;52.41;98634.75;4933866;28;8945;-73
2021/07/12 07:34:05;;;;;;;;;2.40;2.40;;;;;33.80;52.96;98631.38;4933992;28;8990;-74
2021/07/12 07:36:34;;;;;;;;;1.60;1.60;;;;;33.86;52.38;98635.13;4934084;28;8867;-72
2021/07/12 07:39:03;;;;;;;;;0.80;0.80;;;;;33.94;52.37;98647.47;4932902;28;8993;-73
2021/07/12 07:41:33;;;;;;;;;2.00;2.00;;;;;33.98;51.78;98650.88;4931698;28;8885;-72
2021/07/12 07:44:04;;;;;;;;;1.00;1.00;;;;;34.06;52.51;98656.97;4933628;28;8870;-72
2021/07/12 07:46:36;;;;;;;;;0.00;0.00;;;;;34.09;51.62;98658.84;4931866;28;8859;-72
2021/07/12 07:49:13;;;;;;;;;1.20;1.20;;;;;33.96;52.00;98658.75;4933419;28;8864;-73
2021/07/12 07:51:44;;;;;;;;;2.00;2.00;;;;;33.96;52.39;98666.97;4948357;28;8870;-73
2021/07/12 07:54:12;;;;;;;;;2.20;2.20;;;;;33.80;52.22;98661.47;4945114;28;8950;-72
2021/07/12 07:56:43;;;;;;;;;2.00;2.00;;;;;33.65;52.55;98659.03;4949356;28;8883;-73
2021/07/12 07:59:14;;;;;;;;;1.00;1.00;;;;;33.54;52.78;98654.97;4947669;28;8950;-73
2021/07/12 08:01:45;;;;;;;;;1.20;1.20;;;;;33.52;53.67;98651.91;4952318;28;8904;-72
2021/07/12 08:04:14;;;;;;;;;2.40;2.40;;;;;33.53;52.77;98650.72;4941052;29;9694;-75
2021/07/12 08:06:42;;;;;;;;;2.00;2.00;;;;;33.51;53.30;98644.88;4932852;29;8933;-73
2021/07/12 08:09:11;;;;;;;;;2.20;2.20;;;;;33.48;52.15;98632.84;4932390;29;8889;-73
2021/07/12 08:11:40;;;;;;;;;1.00;1.00;;;;;33.47;53.76;98628.56;4935853;29;8843;-74
2021/07/12 08:14:11;;;;;;;;;2.00;2.00;;;;;33.37;53.67;98607.69;4934616;29;8888;-74
2021/07/12 08:16:39;;;;;;;;;1.80;1.80;;;;;33.37;52.28;98600.25;4935570;29;8867;-74
2021/07/12 08:19:18;;;;;;;;;2.60;2.60;;;;;33.42;53.44;98593.50;4933995;29;9616;-75
2021/07/12 08:22:05;;;;;;;;;1.40;1.40;;;;;33.39;52.35;98569.75;4935081;29;9438;-79
2021/07/12 08:24:42;;;;;;;;;1.60;1.60;;;;;33.61;52.04;98580.97;4938216;29;8862;-75
2021/07/12 08:27:13;;;;;;;;;2.00;2.00;;;;;33.68;52.31;98567.91;4935079;29;8941;-75
2021/07/12 08:29:42;;;;;;;;;1.20;1.20;;;;;33.71;52.68;98550.66;4937426;29;8889;-74
2021/07/12 08:32:10;;;;;;;;;2.00;2.00;;;;;33.80;52.00;98546.53;4932336;29;8886;-74
2021/07/12 08:34:41;;;;;;;;;1.40;1.40;;;;;33.95;53.86;98558.69;4932966;29;8863;-73
2021/07/12 08:37:12;;;;;;;;;1.80;1.80;;;;;34.00;51.52;98563.66;4933609;29;8858;-73
2021/07/12 08:39:41;;;;;;;;;2.00;2.00;;;;;33.94;52.35;98551.69;4933345;29;9580;-73
2021/07/12 08:42:13;;;;;;;;;1.20;1.20;;;;;33.91;52.49;98566.22;4933334;29;8874;-74
2021/07/12 08:44:43;;;;;;;;;1.60;1.60;;;;;33.88;53.32;98556.13;4933359;29;8870;-75
2021/07/12 08:47:11;;;;;;;;;2.60;2.60;;;;;33.84;52.29;98556.22;4933661;29;8863;-75
2021/07/12 08:49:40;;;;;;;;;1.80;1.80;;;;;33.75;52.79;98553.31;4933454;29;8859;-73
2021/07/12 08:52:09;;;;;;;;;1.20;1.20;;;;;33.77;53.04;98561.09;4933744;29;8892;-74
2021/07/12 08:54:39;;;;;;;;;1.00;1.00;;;;;33.82;52.62;98557.84;4929185;29;8858;-74
2021/07/12 08:57:08;;;;;;;;;1.40;1.40;;;;;33.98;51.60;98560.56;4934280;29;9000;-73
2021/07/12 08:59:40;;;;;;;;;1.60;1.60;;;;;34.12;49.71;98553.97;4933769;29;8970;-74
2021/07/12 09:02:15;;;;;;;;;0.00;0.00;;;;;34.11;49.38;98525.06;4934224;29;8842;-74
2021/07/12 09:04:51;;;;;;;;;2.00;2.00;;;;;34.04;50.18;98534.22;4933898;29;8855;-74
2021/07/12 09:07:40;;;;;;;;;0.80;0.80;;;;;33.99;50.81;98546.47;4933729;29;8854;-74
2021/07/12 09:10:11;;;;;;;;;1.60;1.60;;;;;34.00;50.40;98558.94;4935148;29;8859;-75
2021/07/12 09:12:43;;;;;;;;;2.00;2.00;;;;;34.10;49.06;98567.31;4934677;29;8956;-73
2021/07/12 09:15:17;;;;;;;;;2.00;2.00;;;;;34.20;49.17;98550.63;4935520;29;8893;-74
2021/07/12 09:17:51;;;;;;;;;1.00;1.00;;;;;34.35;49.31;98562.03;4935696;29;8866;-73
2021/07/12 09:20:32;;;;;;;;;1.20;1.20;;;;;34.46;50.79;98557.03;4932917;29;8843;-75
2021/07/12 09:23:21;;;;;;;;;1.20;1.20;;;;;34.61;49.82;98549.97;4932438;29;8865;-74
2021/07/12 09:26:00;;;;;;;;;1.00;1.00;;;;;34.68;48.47;98535.31;4936480;29;8870;-73
2021/07/12 09:28:40;;;;;;;;;0.60;0.60;;;;;34.71;48.44;98523.50;4936753;29;8862;-72
2021/07/12 09:31:28;;;;;;;;;1.00;1.00;;;;;34.70;48.15;98513.72;4936741;29;8846;-73
2021/07/12 09:34:01;;;;;;;;;1.80;1.80;;;;;34.61;47.73;98491.69;4935368;29;8846;-73
2021/07/12 09:36:35;;;;;;;;;0.80;0.80;;;;;34.51;48.82;98493.50;4936216;29;8854;-72
2021/07/12 09:39:35;;;;;;;;;1.20;1.20;;;;;34.41;48.65;98502.03;4935810;29;8873;-72
2021/07/12 09:42:09;;;;;;;;;1.00;1.00;;;;;34.28;49.60;98502.69;4935841;29;8840;-71
2021/07/12 09:44:46;;;;;;;;;3.00;3.00;;;;;34.12;49.78;98493.75;4936447;29;8864;-72
2021/07/12 09:47:20;;;;;;;;;2.00;2.00;;;;;34.04;48.83;98496.69;4936040;29;8970;-73
2021/07/12 09:49:51;;;;;;;;;3.00;3.00;;;;;34.01;48.97;98507.72;4934498;29;8925;-74
2021/07/12 09:52:21;;;;;;;;;3.00;3.00;;;;;33.98;49.28;98525.75;4934192;29;8846;-73
2021/07/12 09:54:51;;;;;;;;;2.00;2.00;;;;;33.93;49.47;98539.97;4934198;29;8858;-73
2021/07/12 09:57:21;;;;;;;;;1.00;1.00;;;;;33.93;49.72;98547.41;4934682;29;8969;-73
2021/07/12 10:00:02;;;;;;;;;1.80;1.80;;;;;33.90;49.46;98537.31;4935576;29;8866;-73
2021/07/12 10:02:33;;;;;;;;;1.40;1.40;;;;;33.88;49.30;98539.72;4936037;29;8854;-73
2021/07/12 10:05:05;;;;;;;;;2.00;2.00;;;;;33.86;51.67;98551.09;4935794;29;8851;-73
2021/07/12 10:07:35;;;;;;;;;1.00;1.00;;;;;33.81;50.50;98556.28;4936345;29;8989;-73
2021/07/12 10:10:13;;;;;;;;;0.40;0.40;;;;;33.78;50.00;98579.03;4936465;29;8855;-72
2021/07/12 10:12:44;;;;;;;;;2.00;2.00;;;;;33.73;50.46;98599.47;4936360;29;8892;-72
2021/07/12 10:15:17;;;;;;;;;1.00;1.00;;;;;33.64;50.35;98602.00;4937555;29;8979;-72
2021/07/12 10:17:47;;;;;;;;;0.20;0.20;;;;;33.50;50.60;98614.03;4936652;29;8859;-73
2021/07/12 10:20:17;;;;;;;;;1.00;1.00;;;;;33.35;50.46;98621.00;4936965;29;8861;-72
2021/07/12 10:22:47;;;;;;;;;0.60;0.60;;;;;33.20;51.88;98622.44;4936450;29;8854;-72
2021/07/12 10:25:19;;;;;;;;;0.00;0.00;;;;;33.04;51.28;98621.19;4936326;29;8881;-72
2021/07/12 10:27:49;;;;;;;;;0.20;0.20;;;;;32.89;51.73;98624.63;4936233;29;8858;-72
2021/07/12 10:30:27;;;;;;;;;1.80;1.80;;;;;32.79;52.53;98640.00;4936780;29;9092;-72
2021/07/12 10:33:03;;;;;;;;;0.00;0.00;;;;;32.64;53.07;98625.81;4935534;29;8851;-72
2021/07/12 10:35:54;;;;;;;;;0.80;0.80;;;;;32.56;52.69;98629.84;4936087;29;8881;-72
2021/07/12 10:38:46;;;;;;;;;0.80;0.80;;;;;32.43;52.99;98613.31;4936085;29;8866;-72
2021/07/12 10:41:15;;;;;;;;;0.00;0.00;;;;;32.35;52.41;98614.63;4935945;29;8858;-72
2021/07/12 10:43:47;;;;;;;;;0.00;0.00;;;;;32.26;53.04;98602.69;4959536;23;9584;-72
2021/07/12 10:46:28;;;;;;;;;0.20;0.20;;;;;32.19;52.76;98591.88;4936036;29;8850;-72
2021/07/12 10:49:24;;;;;;;;;1.00;1.00;;;;;32.14;53.15;98576.75;4935994;29;8882;-72
2021/07/12 10:51:53;;;;;;;;;1.00;1.00;;;;;32.09;53.08;98563.56;4935785;29;8858;-72
2021/07/12 10:54:22;;;;;;;;;0.00;0.00;;;;;32.01;52.65;98560.19;4918999;29;8850;-72
2021/07/12 10:56:57;;;;;;;;;0.80;0.80;;;;;32.00;52.97;98557.88;4935827;29;8925;-72
2021/07/12 10:59:40;;;;;;;;;0.60;0.60;;;;;31.97;52.47;98567.66;4935888;29;8842;-72
2021/07/12 11:02:31;;;;;;;;;0.00;0.00;;;;;31.94;52.57;98567.72;4935716;29;8945;-72
2021/07/12 11:05:05;;;;;;;;;1.00;1.00;;;;;31.90;52.40;98569.72;4936103;29;8866;-72
2021/07/12 11:07:46;;;;;;;;;0.00;0.00;;;;;31.89;52.37;98562.72;4936369;29;8924;-72
2021/07/12 11:10:27;;;;;;;;;0.00;0.00;;;;;31.86;52.26;98558.88;4935617;29;8856;-72
2021/07/12 11:13:04;;;;;;;;;0.00;0.00;;;;;31.85;52.81;98560.06;4918932;29;8957;-72
2021/07/12 11:15:37;;;;;;;;;0.80;0.80;;;;;31.84;52.69;98561.22;4935445;29;8854;-72
2021/07/12 11:18:28;;;;;;;;;1.00;1.00;;;;;31.80;52.77;98557.78;4935853;29;8870;-72
2021/07/12 11:21:05;;;;;;;;;0.20;0.20;;;;;31.74;52.87;98552.03;4935468;29;8838;-72
2021/07/12 11:23:40;;;;;;;;;0.80;0.80;;;;;31.75;52.41;98556.31;4935414;29;8846;-72
2021/07/12 11:26:23;;;;;;;;;0.00;0.00;;;;;31.72;52.33;98557.13;4935355;29;8966;-72
2021/07/12 11:28:57;;;;;;;;;0.00;0.00;;;;;31.68;52.74;98555.59;4935318;29;8877;-72
2021/07/12 11:31:42;;;;;;;;;0.00;0.00;;;;;31.68;52.78;98561.88;4935288;29;8854;-72
2021/07/12 11:34:21;;;;;;;;;0.00;0.00;;;;;31.66;52.63;98561.47;4935154;29;8869;-72
2021/07/12 11:36:54;;;;;;;;;0.00;0.00;;;;;31.63;52.44;98575.16;4935222;29;8898;-72
2021/07/12 11:39:43;;;;;;;;;0.60;0.60;;;;;31.58;52.36;98592.75;4920450;29;9580;-72
2021/07/12 11:42:22;;;;;;;;;1.00;1.00;;;;;31.56;53.21;98597.06;4934923;29;8869;-72
2021/07/12 11:44:54;;;;;;;;;0.80;0.80;;;;;31.52;53.10;98588.94;4934470;29;8842;-72
2021/07/12 11:47:24;;;;;;;;;0.00;0.00;;;;;31.49;53.45;98592.50;4934993;29;8850;-72
2021/07/12 11:49:56;;;;;;;;;0.00;0.00;;;;;31.45;53.04;98589.03;4935031;29;8965;-72
2021/07/12 11:52:26;;;;;;;;;1.00;1.00;;;;;31.38;52.71;98580.94;4935010;29;8847;-72
2021/07/12 11:55:04;;;;;;;;;1.00;1.00;;;;;31.38;52.64;98587.19;4934995;29;8850;-72
2021/07/12 11:57:33;;;;;;;;;1.00;1.00;;;;;31.32;53.17;98582.59;4934927;29;8854;-72
2021/07/12 12:00:06;;;;;;;;;1.00;1.00;;;;;31.29;53.09;98591.59;4934831;29;9622;-72
2021/07/12 12:02:35;;;;;;;;;0.40;0.40;;;;;31.24;53.87;98600.97;4935162;29;8921;-72
2021/07/12 12:05:08;;;;;;;;;0.20;0.20;;;;;31.20;54.00;98605.72;4941997;23;8949;-72
2021/07/12 12:07:47;;;;;;;;;0.40;0.40;;;;;31.18;55.43;98616.28;4934813;29;8854;-72
2021/07/12 12:10:39;;;;;;;;;0.80;0.80;;;;;31.14;55.45;98618.25;4935068;29;9576;-72